ICT,Max TemperatureF,Mean TemperatureF,Min TemperatureF,Max Dew PointF,MeanDew PointF,Min DewpointF,Max Humidity, Mean Humidity, Min Humidity, Max Sea Level PressureIn, Mean Sea Level PressureIn, Min Sea Level PressureIn, Max VisibilityMiles, Mean VisibilityMiles, Min VisibilityMiles, Max Wind SpeedMPH, Mean Wind SpeedMPH, Max Gust SpeedMPH,PrecipitationIn, CloudCover, Events, WindDirDegrees
2013-3-1,95,84,73,73,73,72,94,65,47,29.86,29.79,29.71,6,6,6,13,5,,0.00,3,,82
2013-3-2,96,84,73,73,71,68,94,61,39,29.92,29.84,29.74,6,6,4,9,6,,0.00,3,,74
2013-3-3,98,86,73,73,71,68,94,59,37,29.95,29.86,29.80,6,6,4,99,11,,0.00,3,,82
2013-3-4,95,83,71,73,70,68,94,62,41,29.98,29.91,29.83,6,6,4,9,5,,0.00,3,,73
2013-3-5,95,85,75,90,73,70,100,70,47,29.98,29.91,29.83,6,6,4,12,6,,0.00,6,Rain,70
2013-3-6,93,83,73,73,69,66,94,59,41,29.98,29.90,29.80,6,6,3,104,11,,0.00,2,,79
2013-3-7,93,82,71,73,70,68,94,62,44,29.98,29.91,29.83,6,5,4,10,6,,0.00,5,,65
2013-3-8,96,84,71,73,70,68,94,59,39,29.95,29.88,29.80,6,5,4,12,6,,0.00,5,,82
2013-3-9,96,84,71,73,70,64,94,62,34,29.95,29.87,29.80,6,5,3,9,5,,0.00,4,,38
2013-3-10,96,84,73,75,72,68,94,66,39,29.92,29.85,29.77,5,5,4,10,4,,0.00,5,,166
2013-3-11,96,84,73,73,71,68,94,63,39,29.92,29.87,29.77,6,5,4,7,4,,0.00,2,,77
2013-3-12,98,86,73,73,70,66,88,63,35,29.92,29.86,29.77,6,5,2,10,3,,0.00,3,,30
2013-3-13,98,86,73,73,72,70,94,65,39,29.95,29.87,29.80,6,5,3,13,6,,0.00,5,Rain,56
2013-3-14,96,84,73,75,71,66,94,64,37,29.95,29.88,29.80,6,5,4,26,8,,0.00,3,,32
2013-3-15,95,83,71,75,72,70,94,70,47,29.95,29.90,29.83,6,5,2,15,4,,0.00,3,,54
2013-3-16,95,85,75,75,73,70,89,63,44,29.98,29.90,29.83,6,6,4,10,6,,0.00,3,,69
2013-3-17,96,84,71,73,71,68,94,60,39,29.95,29.86,29.77,6,6,6,9,4,,0.00,2,,106
2013-3-18,96,82,69,73,70,64,94,60,34,29.89,29.81,29.74,6,6,5,12,4,,0.00,1,,249
2013-3-19,98,86,73,77,72,66,94,62,35,29.86,29.79,29.71,6,6,3,10,6,,0.00,2,,50
2013-3-20,98,86,73,77,73,66,94,63,35,29.86,29.81,29.74,6,6,2,13,4,,0.00,2,,241
2013-3-21,100,86,73,75,71,64,100,61,31,29.86,29.77,29.68,6,6,3,10,5,,0.00,1,,94
2013-3-22,96,84,71,73,71,66,94,62,37,29.83,29.77,29.71,6,6,4,10,5,,0.00,4,,121
2013-3-23,98,86,75,77,72,68,94,60,37,29.86,29.78,29.71,6,6,6,14,6,,0.00,4,,82
2013-3-24,98,86,75,75,72,68,94,59,37,29.89,29.78,29.68,6,6,6,13,5,,0.00,2,,186
2013-3-25,96,84,73,77,74,70,94,64,41,29.86,29.78,29.68,6,6,4,14,4,,0.00,2,,224
2013-3-26,96,86,75,77,73,70,94,63,44,29.83,29.76,29.71,6,6,4,13,4,,0.00,4,,246
2013-3-27,95,84,73,75,73,72,94,63,47,29.86,29.78,29.71,6,6,4,13,6,,0.00,3,,207
2013-3-28,95,85,75,77,74,70,94,61,44,29.86,29.79,29.74,6,5,2,13,5,,0.00,6,Thunderstorm,227
2013-3-29,96,86,77,77,74,70,94,62,41,29.86,29.77,29.71,6,5,2,13,4,,0.00,4,,222
2013-3-30,102,90,77,79,75,68,94,64,33,29.83,29.75,29.68,6,5,3,13,5,,0.00,4,,123
2013-3-31,102,86,71,73,71,66,94,57,31,29.86,29.77,29.71,6,6,6,13,6,,0.00,3,,89